Time;durP1;ratioP1;P1;durP2;ratioP2;P2;SDS_P1;SDS_P2;PMS_P1;PMS_P2;Temp;Humidity;BMP_temperature;BMP_pressure;BME280_temperature;BME280_humidity;BME280_pressure;Samples;Min_cycle;Max_cycle;Signal;HPM_P1;HPM_P2
2023/08/01 00:02:43;;;;;;;10.88;3.17;;;18.30;99.90;;;;;;10510854;28;20044;-36
2023/08/01 00:07:44;;;;;;;6.93;2.50;;;18.30;99.90;;;;;;10515642;28;20067;-35
2023/08/01 00:12:48;;;;;;;15.82;3.15;;;18.30;99.90;;;;;;10528364;28;20459;-33
2023/08/01 00:17:49;;;;;;;12.15;2.60;;;18.60;99.90;;;;;;10521258;28;20084;-35
2023/08/01 00:22:51;;;;;;;10.97;3.13;;;18.20;99.90;;;;;;10530651;28;20469;-34
2023/08/01 00:27:54;;;;;;;13.30;2.50;;;18.70;99.90;;;;;;10521123;28;20576;-36
2023/08/01 00:32:56;;;;;;;5.70;2.50;;;18.20;99.90;;;;;;10527010;28;20804;-32
2023/08/01 00:37:58;;;;;;;12.10;3.22;;;18.30;99.90;;;;;;10518853;28;20052;-32
2023/08/01 00:43:01;;;;;;;8.23;2.20;;;18.30;99.90;;;;;;10532770;28;20087;-32
2023/08/01 00:48:04;;;;;;;9.05;2.90;;;18.10;99.90;;;;;;10529160;28;20474;-33
2023/08/01 00:53:05;;;;;;;;;;;18.30;99.90;;;;;;10519356;28;20090;-36
2023/08/01 00:58:08;;;;;;;7.15;2.67;;;18.30;99.90;;;;;;10518649;28;19927;-37
2023/08/01 01:03:10;;;;;;;12.07;2.72;;;18.20;99.90;;;;;;10520968;28;20150;-39
2023/08/01 01:08:12;;;;;;;6.88;2.65;;;18.10;99.90;;;;;;10515805;28;20123;-38
2023/08/01 01:13:16;;;;;;;10.45;2.40;;;18.80;99.90;;;;;;10519793;28;20093;-35
2023/08/01 01:18:17;;;;;;;12.27;2.97;;;18.70;99.90;;;;;;10522996;28;20158;-35
2023/08/01 01:23:22;;;;;;;7.23;2.47;;;18.20;99.90;;;;;;10524620;28;20557;-41
2023/08/01 01:28:24;;;;;;;14.25;4.18;;;18.60;99.90;;;;;;10527163;28;20539;-35
2023/08/01 01:33:26;;;;;;;8.30;2.80;;;18.40;99.90;;;;;;10509276;28;20040;-35
2023/08/01 01:38:29;;;;;;;10.10;3.08;;;18.60;99.90;;;;;;10524149;28;20321;-40
2023/08/01 01:43:31;;;;;;;13.32;3.15;;;18.10;99.90;;;;;;10528505;28;20063;-35
2023/08/01 01:48:33;;;;;;;10.98;2.75;;;18.30;99.90;;;;;;10521347;28;20072;-38
2023/08/01 01:53:36;;;;;;;8.30;3.50;;;18.30;99.90;;;;;;10516804;28;20670;-39
2023/08/01 01:58:38;;;;;;;10.55;3.63;;;18.30;99.90;;;;;;10530755;28;20494;-36
2023/08/01 02:03:40;;;;;;;17.50;3.83;;;18.10;99.90;;;;;;10520167;28;20681;-37
2023/08/01 02:08:43;;;;;;;13.93;2.97;;;18.10;99.90;;;;;;10526314;28;20138;-44
2023/08/01 02:13:45;;;;;;;10.85;3.17;;;18.40;99.90;;;;;;10518963;28;20079;-39
2023/08/01 02:18:47;;;;;;;19.17;3.75;;;18.00;99.90;;;;;;10524441;28;20052;-41
2023/08/01 02:23:50;;;;;;;10.93;3.47;;;18.20;99.90;;;;;;10532069;28;20079;-38
2023/08/01 02:28:52;;;;;;;8.30;2.83;;;18.10;99.90;;;;;;10525913;28;20040;-37
2023/08/01 02:33:54;;;;;;;23.27;3.90;;;18.30;99.90;;;;;;10524817;28;20045;-33
2023/08/01 02:38:57;;;;;;;11.27;3.57;;;18.00;99.90;;;;;;10525029;28;20056;-34
2023/08/01 02:43:59;;;;;;;11.55;3.33;;;18.00;99.90;;;;;;10529583;28;20482;-32
2023/08/01 02:49:01;;;;;;;15.30;4.28;;;17.90;99.90;;;;;;10516463;28;20529;-34
2023/08/01 02:54:04;;;;;;;20.45;4.55;;;17.70;99.90;;;;;;10526684;28;20128;-38
2023/08/01 03:15:28;;;;;;;19.70;4.78;;;18.00;99.90;;;;;;10486668;27;2074676;-33
2023/08/01 03:20:29;;;;;;;13.93;3.53;;;17.70;99.90;;;;;;10509663;28;20127;-39
2023/08/01 03:25:31;;;;;;;13.50;3.47;;;17.50;99.90;;;;;;10512816;28;20083;-37
2023/08/01 03:30:34;;;;;;;12.27;3.47;;;17.60;99.90;;;;;;10507155;28;20493;-34
2023/08/01 03:35:36;;;;;;;12.32;3.22;;;18.00;99.90;;;;;;10505142;28;20376;-35
2023/08/01 03:40:38;;;;;;;17.27;3.67;;;17.60;99.90;;;;;;10504080;28;20131;-36
2023/08/01 03:45:41;;;;;;;13.40;2.83;;;17.40;99.90;;;;;;10500005;28;20090;-39
2023/08/01 03:50:43;;;;;;;16.73;4.57;;;17.80;99.90;;;;;;10515844;28;20079;-32
2023/08/01 03:55:45;;;;;;;13.70;2.73;;;17.50;99.90;;;;;;10508258;28;20080;-32
2023/08/01 04:00:49;;;;;;;14.03;2.87;;;17.30;99.90;;;;;;10514983;28;20472;-37
2023/08/01 04:05:51;;;;;;;13.43;2.65;;;17.70;99.90;;;;;;10511775;28;20488;-45
2023/08/01 04:10:52;;;;;;;11.27;2.72;;;18.30;99.90;;;;;;10526316;28;20044;-37
2023/08/01 04:15:56;;;;;;;8.57;3.10;;;17.40;99.90;;;;;;10501537;28;20052;-34
2023/08/01 04:20:57;;;;;;;10.77;2.72;;;17.50;99.90;;;;;;10509752;28;20091;-39
2023/08/01 04:25:59;;;;;;;10.07;2.90;;;17.80;99.90;;;;;;10467278;28;20072;-37
2023/08/01 04:31:02;;;;;;;7.23;2.73;;;17.50;99.90;;;;;;10478808;28;20066;-34
2023/08/01 04:36:04;;;;;;;7.20;2.85;;;17.70;99.90;;;;;;10479577;28;20552;-39
2023/08/01 04:41:07;;;;;;;7.32;2.55;;;17.40;99.90;;;;;;10495356;28;20485;-37
2023/08/01 04:46:11;;;;;;;11.85;2.55;;;17.40;99.90;;;;;;10484404;28;20048;-32
2023/08/01 04:51:12;;;;;;;12.50;2.47;;;17.70;99.90;;;;;;10463607;28;20077;-44
2023/08/01 04:56:14;;;;;;;9.07;3.13;;;17.70;99.90;;;;;;10484897;28;20076;-33
2023/08/01 05:01:17;;;;;;;12.25;2.47;;;17.10;99.90;;;;;;10475118;28;20409;-33
2023/08/01 05:06:19;;;;;;;15.45;4.20;;;17.90;99.90;;;;;;10480219;28;20471;-36
2023/08/01 05:11:21;;;;;;;17.87;3.97;;;17.60;99.90;;;;;;10476799;28;20053;-36
2023/08/01 05:16:25;;;;;;;9.02;2.55;;;17.50;99.90;;;;;;10481069;28;20045;-34
2023/08/01 05:21:26;;;;;;;10.98;3.10;;;17.90;99.90;;;;;;10471121;28;20052;-33
2023/08/01 05:26:29;;;;;;;12.73;2.57;;;17.50;99.90;;;;;;10470619;28;20584;-33
2023/08/01 05:31:32;;;;;;;10.35;2.78;;;17.70;99.90;;;;;;10489325;28;20080;-36
2023/08/01 05:36:33;;;;;;;11.20;2.95;;;18.30;99.90;;;;;;10480252;28;20076;-36
2023/08/01 05:41:36;;;;;;;12.43;3.40;;;17.90;99.90;;;;;;10486040;28;20519;-36
2023/08/01 05:46:39;;;;;;;;;;;17.60;99.90;;;;;;10484742;28;20044;-36
2023/08/01 05:51:41;;;;;;;;;;;18.10;99.90;;;;;;10486619;28;20020;-38
2023/08/01 05:56:43;;;;;;;13.43;3.17;;;18.10;99.90;;;;;;10502065;28;19924;-33
2023/08/01 06:01:46;;;;;;;15.63;3.30;;;18.20;99.90;;;;;;10486730;28;20045;-33
2023/08/01 06:06:48;;;;;;;11.07;2.10;;;18.30;99.90;;;;;;10482386;28;20041;-39
2023/08/01 06:11:50;;;;;;;10.40;2.53;;;18.20;99.90;;;;;;10482472;28;20913;-37
2023/08/01 06:16:53;;;;;;;7.67;3.03;;;18.50;99.90;;;;;;10470736;28;20103;-32
2023/08/01 06:21:56;;;;;;;10.23;2.80;;;18.10;99.90;;;;;;10473190;28;20131;-35
2023/08/01 06:26:58;;;;;;;13.10;2.38;;;17.50;99.90;;;;;;10468659;28;20519;-37
2023/08/01 06:32:02;;;;;;;13.67;3.40;;;17.60;99.90;;;;;;10468407;28;20079;-33
2023/08/01 06:37:04;;;;;;;9.88;2.60;;;17.70;99.90;;;;;;10482821;28;20450;-37
2023/08/01 06:42:07;;;;;;;5.72;2.38;;;17.60;99.90;;;;;;10471371;28;20048;-39
2023/08/01 06:47:10;;;;;;;;;;;18.10;99.90;;;;;;10468413;28;20115;-33
2023/08/01 06:52:11;;;;;;;;;;;18.10;99.90;;;;;;10468734;28;20360;-34
2023/08/01 06:57:14;;;;;;;10.05;2.42;;;17.80;99.90;;;;;;10473741;28;20034;-37
2023/08/01 07:02:17;;;;;;;13.25;3.42;;;17.90;99.90;;;;;;10467003;28;20075;-36
2023/08/01 07:07:18;;;;;;;13.98;2.65;;;18.10;99.90;;;;;;10474847;28;20173;-38
2023/08/01 07:12:20;;;;;;;11.47;1.93;;;18.30;99.90;;;;;;10476112;28;20092;-39
2023/08/01 07:17:24;;;;;;;11.15;2.13;;;18.00;99.90;;;;;;10462149;28;20146;-41
2023/08/01 07:22:25;;;;;;;9.30;1.98;;;18.30;99.90;;;;;;10476292;28;20068;-37
2023/08/01 07:27:27;;;;;;;6.97;2.35;;;17.80;99.90;;;;;;10473982;28;20091;-43
2023/08/01 07:32:31;;;;;;;7.05;2.17;;;18.40;99.90;;;;;;10475768;28;20497;-34
2023/08/01 07:37:34;;;;;;;9.32;2.30;;;18.50;99.90;;;;;;10466498;28;20098;-34
2023/08/01 07:42:36;;;;;;;9.55;2.85;;;18.90;99.90;;;;;;10457097;28;20069;-39
2023/08/01 07:47:39;;;;;;;12.10;2.75;;;18.60;99.90;;;;;;10473491;28;20080;-34
2023/08/01 07:52:41;;;;;;;8.60;2.53;;;18.50;99.90;;;;;;10480755;28;20559;-40
2023/08/01 07:57:42;;;;;;;9.93;2.15;;;19.20;99.90;;;;;;10476522;28;20444;-35
2023/08/01 08:02:47;;;;;;;12.07;2.70;;;18.80;99.90;;;;;;10469523;28;20076;-32
2023/08/01 08:07:48;;;;;;;19.27;3.55;;;18.90;99.90;;;;;;10467606;28;20106;-37
2023/08/01 08:12:50;;;;;;;13.68;3.45;;;18.80;99.90;;;;;;10470091;28;20088;-41
2023/08/01 08:17:53;;;;;;;14.07;2.97;;;18.90;99.90;;;;;;10479544;28;20064;-36
2023/08/01 08:22:55;;;;;;;16.20;2.63;;;18.30;99.90;;;;;;10476496;28;20972;-36
2023/08/01 08:27:57;;;;;;;7.40;1.90;;;18.20;99.90;;;;;;10486495;28;20460;-43
2023/08/01 08:33:04;;;;;;;10.90;1.75;;;18.80;99.90;;;;;;10482989;28;20165;-38
2023/08/01 08:38:05;;;;;;;11.68;3.00;;;19.20;99.90;;;;;;10483251;28;20106;-39
2023/08/01 08:43:08;;;;;;;18.52;2.83;;;19.30;99.90;;;;;;10484879;28;20545;-38
2023/08/01 08:48:17;;;;;;;12.93;3.08;;;19.00;99.90;;;;;;10473877;28;20634;-40
2023/08/01 08:53:19;;;;;;;10.07;2.78;;;18.50;99.90;;;;;;10476765;28;20111;-42
2023/08/01 08:58:22;;;;;;;10.10;2.85;;;18.70;99.90;;;;;;10475724;28;20076;-41
2023/08/01 09:03:25;;;;;;;;;;;19.00;99.90;;;;;;10481950;28;20128;-37
2023/08/01 09:08:30;;;;;;;15.18;4.03;;;19.00;99.90;;;;;;10474362;28;19920;-36
2023/08/01 09:13:32;;;;;;;10.25;2.33;;;18.70;99.90;;;;;;10483884;28;20754;-35
2023/08/01 09:18:35;;;;;;;9.70;2.92;;;19.20;99.90;;;;;;10490991;28;20558;-36
2023/08/01 09:23:37;;;;;;;8.73;1.85;;;18.90;99.90;;;;;;10467695;28;20492;-36
2023/08/01 09:28:39;;;;;;;13.50;3.30;;;19.40;99.90;;;;;;10480116;28;20048;-36
2023/08/01 09:33:42;;;;;;;6.20;2.25;;;19.10;99.90;;;;;;10491094;28;20080;-40
2023/08/01 09:38:44;;;;;;;7.03;1.77;;;19.30;99.90;;;;;;10474756;28;20044;-33
2023/08/01 09:43:48;;;;;;;13.45;2.45;;;19.90;99.90;;;;;;10463484;28;20148;-34
2023/08/01 09:48:51;;;;;;;12.02;2.38;;;19.20;99.90;;;;;;10479392;28;20053;-35
2023/08/01 09:53:55;;;;;;;7.82;2.03;;;20.00;99.90;;;;;;10476971;28;20140;-38
2023/08/01 09:58:59;;;;;;;11.05;2.60;;;19.60;99.90;;;;;;10475652;28;20084;-34
2023/08/01 10:04:03;;;;;;;7.38;1.70;;;19.60;99.90;;;;;;10482707;28;20151;-40
2023/08/01 10:09:05;;;;;;;10.57;2.90;;;19.60;99.90;;;;;;10480476;28;20143;-37
2023/08/01 10:14:08;;;;;;;15.95;2.75;;;20.00;99.90;;;;;;10491827;28;20143;-38
2023/08/01 10:19:14;;;;;;;9.43;1.60;;;20.10;99.90;;;;;;10483042;28;20151;-38
2023/08/01 10:24:17;;;;;;;10.07;3.50;;;20.00;99.90;;;;;;10476947;28;20053;-35
2023/08/01 10:29:21;;;;;;;20.48;2.13;;;19.70;99.90;;;;;;10480972;28;20396;-44
2023/08/01 10:34:24;;;;;;;15.75;2.47;;;19.40;99.90;;;;;;10479454;28;20131;-39
2023/08/01 10:39:28;;;;;;;8.20;2.25;;;20.10;99.90;;;;;;10489979;28;20041;-36
2023/08/01 10:44:31;;;;;;;11.50;2.58;;;19.10;99.90;;;;;;10478039;28;20119;-36
2023/08/01 10:49:39;;;;;;;7.90;1.73;;;19.30;99.90;;;;;;10476061;28;20049;-36
2023/08/01 10:54:41;;;;;;;14.82;1.80;;;20.00;99.90;;;;;;10485972;28;20112;-42
2023/08/01 10:59:43;;;;;;;7.22;2.25;;;19.60;99.90;;;;;;10479916;28;20131;-35
2023/08/01 11:04:56;;;;;;;10.38;1.95;;;19.60;99.90;;;;;;10464254;28;20531;-32
2023/08/01 11:10:06;;;;;;;17.02;2.40;;;19.40;99.90;;;;;;10478098;28;20102;-34
2023/08/01 11:15:09;;;;;;;6.90;1.58;;;19.50;99.90;;;;;;10481483;28;20071;-39
2023/08/01 11:20:13;;;;;;;5.78;1.35;;;20.00;99.90;;;;;;10469352;28;20076;-40
2023/08/01 11:25:15;;;;;;;8.48;1.85;;;20.10;99.90;;;;;;10472414;28;20658;-34
2023/08/01 11:30:17;;;;;;;10.38;2.10;;;20.00;99.90;;;;;;10489402;28;20075;-36
2023/08/01 11:35:20;;;;;;;9.10;1.95;;;20.20;99.90;;;;;;10481512;28;20608;-34
2023/08/01 11:40:22;;;;;;;11.18;1.80;;;20.60;99.90;;;;;;10483485;28;20087;-34
2023/08/01 11:45:23;;;;;;;12.68;2.05;;;20.10;99.90;;;;;;10471668;28;20072;-39
2023/08/01 11:50:27;;;;;;;6.93;1.75;;;20.50;99.90;;;;;;10494262;28;20139;-37
2023/08/01 11:55:29;;;;;;;5.38;1.50;;;20.40;99.90;;;;;;10464573;28;20136;-36
2023/08/01 12:00:30;;;;;;;13.70;1.80;;;20.70;99.80;;;;;;10469939;28;20106;-39
2023/08/01 12:05:34;;;;;;;5.72;1.70;;;20.60;99.90;;;;;;10467582;28;20524;-35
2023/08/01 12:10:38;;;;;;;6.45;1.80;;;21.20;99.10;;;;;;10488804;28;20144;-35
2023/08/01 12:15:40;;;;;;;13.13;2.25;;;20.80;97.70;;;;;;10458979;28;20096;-32
2023/08/01 12:20:44;;;;;;;7.70;1.75;;;20.90;96.70;;;;;;10501339;28;20456;-40
2023/08/01 12:25:47;;;;;;;12.85;1.98;;;21.20;98.80;;;;;;10468087;28;20080;-38
2023/08/01 12:30:51;;;;;;;13.10;2.08;;;21.50;98.50;;;;;;10480995;28;20049;-36
2023/08/01 12:35:54;;;;;;;10.10;1.63;;;21.30;95.80;;;;;;10482598;28;20040;-41
2023/08/01 12:40:56;;;;;;;6.43;1.70;;;21.00;96.80;;;;;;10470203;28;20076;-37
2023/08/01 12:45:58;;;;;;;6.03;1.25;;;21.90;96.00;;;;;;10474772;28;20098;-35
2023/08/01 12:51:01;;;;;;;4.85;1.55;;;21.70;97.30;;;;;;10464347;28;20053;-37
2023/08/01 12:56:04;;;;;;;9.15;1.90;;;21.60;96.30;;;;;;10488179;28;20129;-40
2023/08/01 13:01:07;;;;;;;12.15;2.00;;;21.30;98.00;;;;;;10479186;28;20076;-41
2023/08/01 13:06:13;;;;;;;6.63;1.58;;;21.60;96.10;;;;;;10470502;28;20048;-37
2023/08/01 13:11:15;;;;;;;4.28;1.30;;;20.90;97.80;;;;;;10462870;28;20041;-38
2023/08/01 13:16:17;;;;;;;10.07;2.72;;;21.20;99.70;;;;;;10489604;28;20049;-36
2023/08/01 13:21:23;;;;;;;9.40;2.05;;;20.70;99.30;;;;;;10484698;28;20125;-40
2023/08/01 13:26:25;;;;;;;8.25;1.50;;;21.40;99.40;;;;;;10476091;28;20131;-35
2023/08/01 13:31:27;;;;;;;6.47;1.73;;;21.60;96.50;;;;;;10470928;28;20102;-42
2023/08/01 13:36:31;;;;;;;8.80;2.13;;;21.70;97.40;;;;;;10473731;28;20044;-39
2023/08/01 13:41:33;;;;;;;6.40;1.40;;;21.90;96.80;;;;;;10479748;28;20205;-41
2023/08/01 13:46:35;;;;;;;10.95;1.95;;;21.80;94.60;;;;;;10476275;28;20067;-37
2023/08/01 13:51:38;;;;;;;4.25;1.67;;;21.60;94.50;;;;;;10463623;28;20064;-38
2023/08/01 13:56:40;;;;;;;15.48;2.05;;;22.00;98.90;;;;;;10473181;28;20094;-38
2023/08/01 14:01:42;;;;;;;6.40;1.30;;;21.80;94.30;;;;;;10473788;28;20500;-37
2023/08/01 14:06:45;;;;;;;;;;;22.50;96.30;;;;;;10474331;28;20102;-32
2023/08/01 14:11:47;;;;;;;8.50;1.73;;;22.20;97.40;;;;;;10483290;28;20379;-37
2023/08/01 14:16:49;;;;;;;6.25;1.42;;;21.40;97.30;;;;;;10466033;28;20080;-37
2023/08/01 14:21:52;;;;;;;7.97;1.58;;;21.50;99.90;;;;;;10479145;28;20045;-36
2023/08/01 14:26:54;;;;;;;14.90;2.53;;;20.30;99.90;;;;;;10465830;28;20129;-39
2023/08/01 14:31:58;;;;;;;11.05;1.98;;;20.40;99.90;;;;;;10472659;28;20560;-34
2023/08/01 14:37:02;;;;;;;7.60;1.60;;;19.90;99.90;;;;;;10484122;28;20058;-36
2023/08/01 14:42:04;;;;;;;6.85;1.30;;;20.80;99.90;;;;;;10494797;28;20070;-38
2023/08/01 14:47:06;;;;;;;4.70;1.25;;;21.30;99.90;;;;;;10482533;28;20091;-37
2023/08/01 14:52:10;;;;;;;4.20;1.13;;;21.40;97.60;;;;;;10468505;28;20119;-38
2023/08/01 14:57:11;;;;;;;6.57;1.25;;;21.90;99.90;;;;;;10489446;28;20131;-42
2023/08/01 15:02:13;;;;;;;8.25;1.63;;;22.10;94.80;;;;;;10461903;28;20425;-35
2023/08/01 15:07:17;;;;;;;3.67;1.25;;;21.40;93.50;;;;;;10463612;28;20567;-38
2023/08/01 15:12:23;;;;;;;6.78;1.52;;;21.90;97.80;;;;;;10479367;28;20098;-36
2023/08/01 15:17:25;;;;;;;4.60;1.45;;;22.30;96.20;;;;;;10468852;28;20051;-39
2023/08/01 15:22:28;;;;;;;;;;;21.90;97.10;;;;;;10477898;28;20451;-35
2023/08/01 15:27:30;;;;;;;9.63;2.53;;;22.00;90.20;;;;;;10466471;28;20021;-36
2023/08/01 15:32:32;;;;;;;5.68;1.52;;;21.70;93.60;;;;;;10470535;28;20140;-38
2023/08/01 15:37:35;;;;;;;2.53;1.00;;;21.90;94.40;;;;;;10471830;28;20472;-38
2023/08/01 15:42:37;;;;;;;7.90;1.10;;;22.00;96.70;;;;;;10466494;28;20106;-40
2023/08/01 15:47:39;;;;;;;4.85;1.38;;;21.70;98.20;;;;;;10459156;28;20055;-34
2023/08/01 15:52:42;;;;;;;6.78;1.30;;;21.70;97.20;;;;;;10465421;28;20163;-38
2023/08/01 15:57:44;;;;;;;10.02;1.73;;;21.60;93.10;;;;;;10465059;28;20222;-40
2023/08/01 16:02:46;;;;;;;7.80;1.67;;;21.10;96.70;;;;;;10463945;28;20396;-35
2023/08/01 16:07:49;;;;;;;12.35;1.60;;;21.60;94.00;;;;;;10476814;28;20143;-35
2023/08/01 16:12:51;;;;;;;8.05;1.40;;;21.30;96.40;;;;;;10472876;28;20382;-37
2023/08/01 16:17:54;;;;;;;9.98;2.00;;;21.50;99.20;;;;;;10461890;28;20048;-36
2023/08/01 16:22:57;;;;;;;5.72;1.27;;;21.90;97.80;;;;;;10487460;28;20156;-38
2023/08/01 16:27:59;;;;;;;2.70;0.75;;;21.50;97.20;;;;;;10465588;28;20435;-36
2023/08/01 16:33:01;;;;;;;16.15;2.47;;;21.70;98.20;;;;;;10482321;28;20504;-39
2023/08/01 16:38:05;;;;;;;6.88;1.73;;;20.80;95.00;;;;;;10482802;28;20072;-37
2023/08/01 16:43:10;;;;;;;4.72;1.20;;;21.30;95.90;;;;;;10480046;28;20053;-40
2023/08/01 16:48:12;;;;;;;6.07;1.65;;;21.80;98.30;;;;;;10483479;28;20159;-37
2023/08/01 16:53:15;;;;;;;4.18;1.17;;;20.60;97.30;;;;;;10477192;28;20076;-37
2023/08/01 16:58:17;;;;;;;9.18;1.48;;;21.00;99.10;;;;;;10476098;28;20470;-37
2023/08/01 17:03:19;;;;;;;5.30;1.40;;;20.80;94.00;;;;;;10479260;28;20068;-37
2023/08/01 17:08:22;;;;;;;6.55;1.60;;;21.70;95.60;;;;;;10483926;28;20053;-36
2023/08/01 17:13:25;;;;;;;4.65;1.45;;;21.00;96.90;;;;;;10483369;28;20528;-33
2023/08/01 17:18:26;;;;;;;;;;;20.60;96.40;;;;;;10478763;28;20579;-36
2023/08/01 17:23:29;;;;;;;3.67;1.58;;;21.20;97.10;;;;;;10485702;28;20412;-35
2023/08/01 17:28:32;;;;;;;6.88;1.38;;;21.30;98.10;;;;;;10487016;28;20112;-34
2023/08/01 17:33:34;;;;;;;8.35;1.40;;;22.10;92.50;;;;;;10474639;28;20614;-35
2023/08/01 17:38:39;;;;;;;;;;;21.20;94.90;;;;;;10482978;28;20961;-35
2023/08/01 17:43:41;;;;;;;8.68;1.70;;;20.70;96.20;;;;;;10465922;28;20293;-42
2023/08/01 17:48:43;;;;;;;11.35;1.73;;;20.80;95.60;;;;;;10472363;28;20106;-39
2023/08/01 17:53:47;;;;;;;3.88;0.95;;;20.70;97.10;;;;;;10474612;28;20080;-36
2023/08/01 17:58:49;;;;;;;6.13;1.60;;;21.00;99.50;;;;;;10490380;28;20094;-43
2023/08/01 18:03:52;;;;;;;6.32;1.50;;;20.90;96.70;;;;;;10488662;28;20055;-44
2023/08/01 18:08:55;;;;;;;12.48;2.85;;;20.40;99.70;;;;;;10478412;28;20577;-40
2023/08/01 18:13:59;;;;;;;7.53;1.42;;;20.00;99.90;;;;;;10475608;28;20142;-38
2023/08/01 18:19:01;;;;;;;6.47;1.40;;;20.80;99.90;;;;;;10466617;28;20048;-39
2023/08/01 18:24:06;;;;;;;5.63;1.50;;;20.30;99.90;;;;;;10482809;28;20083;-37
2023/08/01 18:29:07;;;;;;;10.02;1.98;;;21.00;98.20;;;;;;10468410;28;20417;-37
2023/08/01 18:34:09;;;;;;;8.05;1.50;;;21.50;98.50;;;;;;10490122;28;20060;-34
2023/08/01 18:39:13;;;;;;;9.30;1.83;;;22.00;95.70;;;;;;10478097;28;20076;-37
2023/08/01 18:44:15;;;;;;;8.13;1.63;;;20.60;99.90;;;;;;10476074;28;20451;-36
2023/08/01 18:49:17;;;;;;;4.05;1.25;;;21.60;98.30;;;;;;10463371;28;20072;-34
2023/08/01 18:54:20;;;;;;;9.13;1.80;;;21.50;95.50;;;;;;10469520;28;20087;-41
2023/08/01 18:59:22;;;;;;;11.00;2.05;;;20.60;99.90;;;;;;10474299;28;20037;-38
2023/08/01 19:04:24;;;;;;;8.57;1.83;;;20.90;99.20;;;;;;10487345;28;20044;-42
2023/08/01 19:09:27;;;;;;;9.38;1.95;;;20.50;99.90;;;;;;10473071;28;20544;-42
2023/08/01 19:14:29;;;;;;;8.02;1.50;;;20.90;99.90;;;;;;10464753;28;20060;-34
2023/08/01 19:19:31;;;;;;;6.20;1.85;;;21.60;98.60;;;;;;10486305;28;20514;-39
2023/08/01 19:24:34;;;;;;;17.70;1.83;;;21.00;96.60;;;;;;10469602;28;20083;-39
2023/08/01 19:29:36;;;;;;;7.72;1.83;;;20.70;99.90;;;;;;10473241;28;20076;-43
2023/08/01 19:34:38;;;;;;;10.68;2.13;;;21.20;99.90;;;;;;10479916;28;20108;-42
2023/08/01 19:39:41;;;;;;;17.58;2.47;;;21.60;98.30;;;;;;10491715;28;20072;-38
2023/08/01 19:44:43;;;;;;;12.52;2.63;;;21.50;96.40;;;;;;10476896;28;20144;-32
2023/08/01 19:49:45;;;;;;;8.13;1.83;;;22.90;94.10;;;;;;10480057;28;20048;-34
2023/08/01 19:54:49;;;;;;;14.15;2.80;;;23.40;91.90;;;;;;10473814;28;20056;-33
2023/08/01 19:59:50;;;;;;;13.25;2.72;;;23.30;90.50;;;;;;10488732;28;20052;-38
2023/08/01 20:04:52;;;;;;;13.68;3.03;;;23.50;91.40;;;;;;10480936;28;20090;-35
2023/08/01 20:09:55;;;;;;;14.57;3.13;;;21.70;97.70;;;;;;10476365;28;20094;-35
2023/08/01 20:14:57;;;;;;;10.32;2.13;;;21.80;98.60;;;;;;10480415;28;20084;-37
2023/08/01 20:19:59;;;;;;;8.23;2.28;;;23.10;94.40;;;;;;10489312;28;20068;-33
2023/08/01 20:25:03;;;;;;;13.68;2.45;;;23.00;95.20;;;;;;10478315;28;20045;-37
2023/08/01 20:30:06;;;;;;;16.63;2.85;;;23.30;93.30;;;;;;10468831;28;20372;-36
2023/08/01 20:35:09;;;;;;;16.58;2.78;;;22.80;95.90;;;;;;10487736;28;20044;-34
2023/08/01 20:40:13;;;;;;;16.38;3.67;;;22.90;95.10;;;;;;10480402;28;20045;-34
2023/08/01 20:45:14;;;;;;;7.05;2.38;;;22.30;98.30;;;;;;10480684;28;20128;-34
2023/08/01 20:50:16;;;;;;;11.30;2.75;;;23.00;95.10;;;;;;10478539;28;20391;-39
2023/08/01 20:55:20;;;;;;;14.85;2.83;;;23.40;93.40;;;;;;10493452;28;20049;-35
2023/08/01 21:00:21;;;;;;;10.80;2.40;;;23.20;93.70;;;;;;10484651;28;20084;-36
2023/08/01 21:05:23;;;;;;;12.27;2.80;;;22.90;95.60;;;;;;10467982;28;20076;-33
2023/08/01 21:10:28;;;;;;;;;;;22.80;95.40;;;;;;10488806;28;20049;-37
2023/08/01 21:15:31;;;;;;;23.92;4.47;;;22.10;98.70;;;;;;10480206;28;20503;-42
2023/08/01 21:20:33;;;;;;;;;;;21.40;99.90;;;;;;10474113;28;20068;-39
2023/08/01 21:25:36;;;;;;;16.50;2.90;;;21.50;99.90;;;;;;10480882;28;20022;-41
2023/08/01 21:30:38;;;;;;;8.32;2.40;;;21.90;99.80;;;;;;10487511;28;20067;-38
2023/08/01 21:35:40;;;;;;;11.65;2.28;;;20.70;99.90;;;;;;10499379;28;20135;-42
2023/08/01 21:40:43;;;;;;;34.58;2.92;;;20.70;99.90;;;;;;10479980;28;20528;-42
2023/08/01 21:45:45;;;;;;;7.43;2.28;;;20.10;99.90;;;;;;10471443;28;20217;-36
2023/08/01 21:50:47;;;;;;;7.20;2.05;;;20.70;99.90;;;;;;10474875;28;20075;-39
2023/08/01 21:55:50;;;;;;;8.70;2.67;;;20.40;99.90;;;;;;10487542;28;20076;-39
2023/08/01 22:00:52;;;;;;;15.95;3.15;;;20.20;99.90;;;;;;10473573;28;20352;-30
2023/08/01 22:05:57;;;;;;;13.00;2.05;;;20.60;99.90;;;;;;10467222;28;20052;-34
2023/08/01 22:11:00;;;;;;;7.72;1.92;;;20.70;99.90;;;;;;10472712;28;20044;-37
2023/08/01 22:16:02;;;;;;;9.25;1.80;;;21.00;99.90;;;;;;10475003;28;20049;-35
2023/08/01 22:21:04;;;;;;;6.20;1.77;;;20.50;99.90;;;;;;10473911;28;20044;-34
2023/08/01 22:26:07;;;;;;;3.85;1.35;;;21.10;99.90;;;;;;10476366;28;20455;-38
2023/08/01 22:31:09;;;;;;;8.65;1.60;;;21.50;99.90;;;;;;10492106;28;20120;-34
2023/08/01 22:36:12;;;;;;;4.22;1.30;;;21.10;99.90;;;;;;10484599;28;20053;-35
2023/08/01 22:41:16;;;;;;;6.18;1.80;;;21.70;99.90;;;;;;10482540;28;20048;-34
2023/08/01 22:46:18;;;;;;;6.60;2.33;;;22.00;99.10;;;;;;10470808;28;20529;-36
2023/08/01 22:51:22;;;;;;;5.60;1.77;;;22.00;98.30;;;;;;10468915;28;20710;-38
2023/08/01 22:56:25;;;;;;;10.85;2.45;;;22.80;95.80;;;;;;10474857;28;20076;-42
2023/08/01 23:01:27;;;;;;;5.35;1.67;;;22.30;97.00;;;;;;10477457;28;20059;-36
2023/08/01 23:06:29;;;;;;;9.00;2.42;;;22.50;96.40;;;;;;10482461;28;20539;-38
2023/08/01 23:11:32;;;;;;;4.05;1.73;;;22.10;98.20;;;;;;10483034;28;20127;-32
2023/08/01 23:16:34;;;;;;;5.97;2.00;;;23.00;94.60;;;;;;10486673;28;20133;-35
2023/08/01 23:21:36;;;;;;;6.85;1.88;;;22.00;98.10;;;;;;10492496;28;20113;-35
2023/08/01 23:26:39;;;;;;;6.60;1.67;;;23.00;94.50;;;;;;10485848;28;20072;-36
2023/08/01 23:31:41;;;;;;;5.07;1.60;;;23.40;92.80;;;;;;10478407;28;20462;-36
2023/08/01 23:36:43;;;;;;;;;;;23.40;92.60;;;;;;10496213;28;20574;-30
2023/08/01 23:41:46;;;;;;;5.23;1.70;;;23.10;93.30;;;;;;10469263;28;19927;-33
2023/08/01 23:46:48;;;;;;;4.60;1.63;;;22.50;95.90;;;;;;10481562;28;20084;-34
2023/08/01 23:51:50;;;;;;;;;;;22.40;96.00;;;;;;10472866;28;20063;-34
2023/08/01 23:56:53;;;;;;;5.33;2.50;;;22.70;95.10;;;;;;10490821;28;20011;-38
